sensor_id;sensor_type;location;lat;lon;timestamp;temperature;humidity
29237;DHT22;16266;50.866;4.398;2023-04-23T00:00:14;9.90;99.90
29237;DHT22;16266;50.866;4.398;2023-04-23T00:02:44;10.00;99.90
29237;DHT22;16266;50.866;4.398;2023-04-23T00:05:11;10.00;99.90
29237;DHT22;16266;50.866;4.398;2023-04-23T00:07:37;10.00;99.90
29237;DHT22;16266;50.866;4.398;2023-04-23T00:10:04;10.00;99.90
29237;DHT22;16266;50.866;4.398;2023-04-23T00:12:31;10.10;99.90
29237;DHT22;16266;50.866;4.398;2023-04-23T00:14:57;10.10;99.90
29237;DHT22;16266;50.866;4.398;2023-04-23T00:17:23;10.30;99.90
29237;DHT22;16266;50.866;4.398;2023-04-23T00:19:48;10.40;99.90
29237;DHT22;16266;50.866;4.398;2023-04-23T00:22:14;10.40;99.90
29237;DHT22;16266;50.866;4.398;2023-04-23T00:24:41;10.50;99.90
29237;DHT22;16266;50.866;4.398;2023-04-23T00:27:07;10.50;99.90
29237;DHT22;16266;50.866;4.398;2023-04-23T00:29:33;10.60;99.90
29237;DHT22;16266;50.866;4.398;2023-04-23T00:31:58;10.70;99.90
29237;DHT22;16266;50.866;4.398;2023-04-23T00:34:25;10.80;99.90
29237;DHT22;16266;50.866;4.398;2023-04-23T00:36:50;10.90;99.90
29237;DHT22;16266;50.866;4.398;2023-04-23T00:39:16;11.00;99.90
29237;DHT22;16266;50.866;4.398;2023-04-23T00:41:42;11.00;99.90
29237;DHT22;16266;50.866;4.398;2023-04-23T00:44:08;11.10;99.90
29237;DHT22;16266;50.866;4.398;2023-04-23T00:46:35;11.10;99.90
29237;DHT22;16266;50.866;4.398;2023-04-23T00:49:01;11.20;99.90
29237;DHT22;16266;50.866;4.398;2023-04-23T00:51:28;11.30;99.90
29237;DHT22;16266;50.866;4.398;2023-04-23T00:53:54;11.30;99.90
29237;DHT22;16266;50.866;4.398;2023-04-23T00:56:21;11.40;99.90
29237;DHT22;16266;50.866;4.398;2023-04-23T00:58:48;11.30;99.90
29237;DHT22;16266;50.866;4.398;2023-04-23T01:01:15;11.30;99.90
29237;DHT22;16266;50.866;4.398;2023-04-23T01:03:45;11.40;99.90
29237;DHT22;16266;50.866;4.398;2023-04-23T01:06:10;11.50;99.90
29237;DHT22;16266;50.866;4.398;2023-04-23T01:08:37;11.40;99.90
29237;DHT22;16266;50.866;4.398;2023-04-23T01:11:03;11.20;99.90
29237;DHT22;16266;50.866;4.398;2023-04-23T01:13:29;11.20;99.90
29237;DHT22;16266;50.866;4.398;2023-04-23T01:15:55;11.10;99.90
29237;DHT22;16266;50.866;4.398;2023-04-23T01:18:22;11.10;99.90
29237;DHT22;16266;50.866;4.398;2023-04-23T01:20:48;11.10;99.90
29237;DHT22;16266;50.866;4.398;2023-04-23T01:23:16;11.10;99.90
29237;DHT22;16266;50.866;4.398;2023-04-23T01:25:42;11.10;99.90
29237;DHT22;16266;50.866;4.398;2023-04-23T01:28:08;11.10;99.90
29237;DHT22;16266;50.866;4.398;2023-04-23T01:30:35;11.10;99.90
29237;DHT22;16266;50.866;4.398;2023-04-23T01:33:01;11.20;99.90
29237;DHT22;16266;50.866;4.398;2023-04-23T01:35:29;11.30;99.90
29237;DHT22;16266;50.866;4.398;2023-04-23T01:37:58;11.30;99.90
29237;DHT22;16266;50.866;4.398;2023-04-23T01:40:24;11.40;99.90
29237;DHT22;16266;50.866;4.398;2023-04-23T01:42:50;11.50;99.90
29237;DHT22;16266;50.866;4.398;2023-04-23T01:45:16;11.60;99.90
29237;DHT22;16266;50.866;4.398;2023-04-23T01:47:45;11.70;99.90
29237;DHT22;16266;50.866;4.398;2023-04-23T01:50:11;11.70;99.90
29237;DHT22;16266;50.866;4.398;2023-04-23T01:52:37;11.80;99.90
29237;DHT22;16266;50.866;4.398;2023-04-23T01:55:03;11.80;99.90
29237;DHT22;16266;50.866;4.398;2023-04-23T01:57:29;11.80;99.90
29237;DHT22;16266;50.866;4.398;2023-04-23T02:00:00;11.80;99.90
29237;DHT22;16266;50.866;4.398;2023-04-23T02:02:29;11.70;99.90
29237;DHT22;16266;50.866;4.398;2023-04-23T02:04:55;11.80;99.90
29237;DHT22;16266;50.866;4.398;2023-04-23T02:07:22;11.70;99.90
29237;DHT22;16266;50.866;4.398;2023-04-23T02:09:48;11.60;99.90
29237;DHT22;16266;50.866;4.398;2023-04-23T02:12:13;11.60;99.90
29237;DHT22;16266;50.866;4.398;2023-04-23T02:14:39;11.40;99.90
29237;DHT22;16266;50.866;4.398;2023-04-23T02:17:05;11.40;99.90
29237;DHT22;16266;50.866;4.398;2023-04-23T02:19:31;11.20;99.90
29237;DHT22;16266;50.866;4.398;2023-04-23T02:21:59;11.10;99.90
29237;DHT22;16266;50.866;4.398;2023-04-23T02:24:26;11.00;99.90
29237;DHT22;16266;50.866;4.398;2023-04-23T02:26:51;11.00;99.90
29237;DHT22;16266;50.866;4.398;2023-04-23T02:29:17;11.10;99.90
29237;DHT22;16266;50.866;4.398;2023-04-23T02:31:43;11.00;99.90
29237;DHT22;16266;50.866;4.398;2023-04-23T02:34:08;11.00;99.90
29237;DHT22;16266;50.866;4.398;2023-04-23T02:36:34;11.00;99.90
29237;DHT22;16266;50.866;4.398;2023-04-23T02:39:00;11.00;99.90
29237;DHT22;16266;50.866;4.398;2023-04-23T02:41:26;11.00;99.90
29237;DHT22;16266;50.866;4.398;2023-04-23T02:43:52;10.90;99.90
29237;DHT22;16266;50.866;4.398;2023-04-23T02:46:17;11.00;99.90
29237;DHT22;16266;50.866;4.398;2023-04-23T02:48:43;11.00;99.90
29237;DHT22;16266;50.866;4.398;2023-04-23T02:51:11;10.90;99.90
29237;DHT22;16266;50.866;4.398;2023-04-23T02:53:37;10.90;99.90
29237;DHT22;16266;50.866;4.398;2023-04-23T02:56:03;10.80;99.90
29237;DHT22;16266;50.866;4.398;2023-04-23T02:58:29;10.80;99.90
29237;DHT22;16266;50.866;4.398;2023-04-23T03:00:55;10.70;99.90
29237;DHT22;16266;50.866;4.398;2023-04-23T03:03:21;10.70;99.90
29237;DHT22;16266;50.866;4.398;2023-04-23T03:05:47;10.70;99.90
29237;DHT22;16266;50.866;4.398;2023-04-23T03:08:12;10.60;99.90
29237;DHT22;16266;50.866;4.398;2023-04-23T03:10:38;10.60;99.90
29237;DHT22;16266;50.866;4.398;2023-04-23T03:13:03;10.50;99.90
29237;DHT22;16266;50.866;4.398;2023-04-23T03:15:29;10.50;99.90
29237;DHT22;16266;50.866;4.398;2023-04-23T03:17:55;10.40;99.90
29237;DHT22;16266;50.866;4.398;2023-04-23T03:20:21;10.30;99.90
29237;DHT22;16266;50.866;4.398;2023-04-23T03:22:46;10.40;99.90
29237;DHT22;16266;50.866;4.398;2023-04-23T03:25:12;10.30;99.90
29237;DHT22;16266;50.866;4.398;2023-04-23T03:27:38;10.30;99.90
29237;DHT22;16266;50.866;4.398;2023-04-23T03:30:06;10.30;99.90
29237;DHT22;16266;50.866;4.398;2023-04-23T03:32:33;10.40;99.90
29237;DHT22;16266;50.866;4.398;2023-04-23T03:34:59;10.30;99.90
29237;DHT22;16266;50.866;4.398;2023-04-23T03:37:26;10.20;99.90
29237;DHT22;16266;50.866;4.398;2023-04-23T03:39:52;10.20;99.90
29237;DHT22;16266;50.866;4.398;2023-04-23T03:42:18;10.20;99.90
29237;DHT22;16266;50.866;4.398;2023-04-23T03:44:43;10.10;99.90
29237;DHT22;16266;50.866;4.398;2023-04-23T03:47:09;10.10;99.90
29237;DHT22;16266;50.866;4.398;2023-04-23T03:49:35;10.20;99.90
29237;DHT22;16266;50.866;4.398;2023-04-23T03:52:00;10.10;99.90
29237;DHT22;16266;50.866;4.398;2023-04-23T03:54:26;10.10;99.90
29237;DHT22;16266;50.866;4.398;2023-04-23T03:56:52;10.10;99.90
29237;DHT22;16266;50.866;4.398;2023-04-23T03:59:19;10.10;99.90
29237;DHT22;16266;50.866;4.398;2023-04-23T04:01:45;10.10;99.90
29237;DHT22;16266;50.866;4.398;2023-04-23T04:04:13;10.00;99.90
29237;DHT22;16266;50.866;4.398;2023-04-23T04:06:39;10.00;99.90
29237;DHT22;16266;50.866;4.398;2023-04-23T04:09:05;10.10;99.90
29237;DHT22;16266;50.866;4.398;2023-04-23T04:11:33;10.00;99.90
29237;DHT22;16266;50.866;4.398;2023-04-23T04:13:58;9.90;99.90
29237;DHT22;16266;50.866;4.398;2023-04-23T04:16:24;9.90;99.90
29237;DHT22;16266;50.866;4.398;2023-04-23T04:18:50;9.90;99.90
29237;DHT22;16266;50.866;4.398;2023-04-23T04:21:16;9.90;99.90
29237;DHT22;16266;50.866;4.398;2023-04-23T04:23:44;10.00;99.90
29237;DHT22;16266;50.866;4.398;2023-04-23T04:26:09;9.90;99.90
29237;DHT22;16266;50.866;4.398;2023-04-23T04:28:35;9.90;99.90
29237;DHT22;16266;50.866;4.398;2023-04-23T04:31:02;9.90;99.90
29237;DHT22;16266;50.866;4.398;2023-04-23T04:33:29;9.80;99.90
29237;DHT22;16266;50.866;4.398;2023-04-23T04:35:56;9.90;99.90
29237;DHT22;16266;50.866;4.398;2023-04-23T04:38:22;9.90;99.90
29237;DHT22;16266;50.866;4.398;2023-04-23T04:40:47;9.90;99.90
29237;DHT22;16266;50.866;4.398;2023-04-23T04:43:13;9.90;99.90
29237;DHT22;16266;50.866;4.398;2023-04-23T04:45:41;9.90;99.90
29237;DHT22;16266;50.866;4.398;2023-04-23T04:48:07;10.00;99.90
29237;DHT22;16266;50.866;4.398;2023-04-23T04:50:33;10.00;99.90
29237;DHT22;16266;50.866;4.398;2023-04-23T04:52:59;10.00;99.90
29237;DHT22;16266;50.866;4.398;2023-04-23T04:55:24;9.90;99.90
29237;DHT22;16266;50.866;4.398;2023-04-23T04:57:52;9.90;99.90
29237;DHT22;16266;50.866;4.398;2023-04-23T05:02:48;10.00;99.90
29237;DHT22;16266;50.866;4.398;2023-04-23T05:05:14;10.10;99.90
29237;DHT22;16266;50.866;4.398;2023-04-23T05:07:39;10.20;99.90
29237;DHT22;16266;50.866;4.398;2023-04-23T05:10:05;10.30;99.90
29237;DHT22;16266;50.866;4.398;2023-04-23T05:12:31;10.60;99.90
29237;DHT22;16266;50.866;4.398;2023-04-23T05:14:57;11.00;99.90
29237;DHT22;16266;50.866;4.398;2023-04-23T05:17:22;11.40;99.90
29237;DHT22;16266;50.866;4.398;2023-04-23T05:19:48;11.90;99.90
29237;DHT22;16266;50.866;4.398;2023-04-23T05:22:14;12.40;99.90
29237;DHT22;16266;50.866;4.398;2023-04-23T05:24:40;13.10;99.90
29237;DHT22;16266;50.866;4.398;2023-04-23T05:27:05;13.70;99.90
29237;DHT22;16266;50.866;4.398;2023-04-23T05:29:31;14.20;99.90
29237;DHT22;16266;50.866;4.398;2023-04-23T05:31:57;14.80;99.90
29237;DHT22;16266;50.866;4.398;2023-04-23T05:34:22;15.20;99.90
29237;DHT22;16266;50.866;4.398;2023-04-23T05:36:48;15.80;99.90
29237;DHT22;16266;50.866;4.398;2023-04-23T05:39:13;16.30;99.90
29237;DHT22;16266;50.866;4.398;2023-04-23T05:41:39;16.80;99.90
29237;DHT22;16266;50.866;4.398;2023-04-23T05:44:05;17.10;99.90
29237;DHT22;16266;50.866;4.398;2023-04-23T05:46:31;17.30;99.90
29237;DHT22;16266;50.866;4.398;2023-04-23T05:48:56;17.60;99.90
29237;DHT22;16266;50.866;4.398;2023-04-23T05:51:22;18.30;99.90
29237;DHT22;16266;50.866;4.398;2023-04-23T05:53:48;18.60;99.90
29237;DHT22;16266;50.866;4.398;2023-04-23T05:56:13;19.10;99.90
29237;DHT22;16266;50.866;4.398;2023-04-23T05:58:39;19.50;99.90
29237;DHT22;16266;50.866;4.398;2023-04-23T06:01:05;19.80;99.90
29237;DHT22;16266;50.866;4.398;2023-04-23T06:03:30;20.20;99.90
29237;DHT22;16266;50.866;4.398;2023-04-23T06:05:56;20.50;99.90
29237;DHT22;16266;50.866;4.398;2023-04-23T06:08:22;20.70;99.90
29237;DHT22;16266;50.866;4.398;2023-04-23T06:10:47;20.90;99.90
29237;DHT22;16266;50.866;4.398;2023-04-23T06:13:13;21.50;99.90
29237;DHT22;16266;50.866;4.398;2023-04-23T06:15:39;21.90;99.90
29237;DHT22;16266;50.866;4.398;2023-04-23T06:18:05;22.20;99.90
29237;DHT22;16266;50.866;4.398;2023-04-23T06:20:30;22.70;99.90
29237;DHT22;16266;50.866;4.398;2023-04-23T06:22:56;23.20;99.90
29237;DHT22;16266;50.866;4.398;2023-04-23T06:25:22;23.50;99.90
29237;DHT22;16266;50.866;4.398;2023-04-23T06:27:48;23.60;99.90
29237;DHT22;16266;50.866;4.398;2023-04-23T06:30:13;23.50;99.90
29237;DHT22;16266;50.866;4.398;2023-04-23T06:32:39;23.80;99.90
29237;DHT22;16266;50.866;4.398;2023-04-23T06:35:06;24.20;99.90
29237;DHT22;16266;50.866;4.398;2023-04-23T06:37:31;24.10;99.90
29237;DHT22;16266;50.866;4.398;2023-04-23T06:39:58;23.80;99.90
29237;DHT22;16266;50.866;4.398;2023-04-23T06:42:23;24.30;99.90
29237;DHT22;16266;50.866;4.398;2023-04-23T06:44:49;24.60;99.90
29237;DHT22;16266;50.866;4.398;2023-04-23T06:47:16;24.70;99.90
29237;DHT22;16266;50.866;4.398;2023-04-23T06:49:42;24.50;99.90
29237;DHT22;16266;50.866;4.398;2023-04-23T06:52:07;24.30;99.90
29237;DHT22;16266;50.866;4.398;2023-04-23T06:54:33;24.50;99.90
29237;DHT22;16266;50.866;4.398;2023-04-23T06:56:58;24.60;99.90
29237;DHT22;16266;50.866;4.398;2023-04-23T06:59:24;25.00;99.70
29237;DHT22;16266;50.866;4.398;2023-04-23T07:01:50;25.00;99.90
29237;DHT22;16266;50.866;4.398;2023-04-23T07:04:16;25.10;99.70
29237;DHT22;16266;50.866;4.398;2023-04-23T07:06:41;25.40;98.30
29237;DHT22;16266;50.866;4.398;2023-04-23T07:09:07;25.20;98.30
29237;DHT22;16266;50.866;4.398;2023-04-23T07:11:33;24.80;98.80
29237;DHT22;16266;50.866;4.398;2023-04-23T07:14:01;24.80;98.60
29237;DHT22;16266;50.866;4.398;2023-04-23T07:16:27;24.50;98.30
29237;DHT22;16266;50.866;4.398;2023-04-23T07:18:56;25.00;99.90
29237;DHT22;16266;50.866;4.398;2023-04-23T07:21:22;25.70;99.00
29237;DHT22;16266;50.866;4.398;2023-04-23T07:23:48;26.10;95.60
29237;DHT22;16266;50.866;4.398;2023-04-23T07:26:13;25.80;96.80
29237;DHT22;16266;50.866;4.398;2023-04-23T07:28:40;26.40;95.90
29237;DHT22;16266;50.866;4.398;2023-04-23T07:31:06;26.80;95.10
29237;DHT22;16266;50.866;4.398;2023-04-23T07:33:32;27.10;93.40
29237;DHT22;16266;50.866;4.398;2023-04-23T07:35:58;26.40;93.80
29237;DHT22;16266;50.866;4.398;2023-04-23T07:38:23;25.90;95.50
29237;DHT22;16266;50.866;4.398;2023-04-23T07:40:49;26.50;93.60
29237;DHT22;16266;50.866;4.398;2023-04-23T07:43:15;26.90;93.80
29237;DHT22;16266;50.866;4.398;2023-04-23T07:45:41;27.60;90.20
29237;DHT22;16266;50.866;4.398;2023-04-23T07:48:07;27.60;90.40
29237;DHT22;16266;50.866;4.398;2023-04-23T07:50:35;27.50;89.70
29237;DHT22;16266;50.866;4.398;2023-04-23T07:53:02;28.10;87.60
29237;DHT22;16266;50.866;4.398;2023-04-23T07:55:28;28.10;85.90
29237;DHT22;16266;50.866;4.398;2023-04-23T07:57:53;27.80;85.30
29237;DHT22;16266;50.866;4.398;2023-04-23T08:00:19;27.60;87.70
29237;DHT22;16266;50.866;4.398;2023-04-23T08:02:46;27.10;85.70
29237;DHT22;16266;50.866;4.398;2023-04-23T08:05:11;27.00;88.00
29237;DHT22;16266;50.866;4.398;2023-04-23T08:07:37;26.10;88.60
29237;DHT22;16266;50.866;4.398;2023-04-23T08:10:03;25.20;91.60
29237;DHT22;16266;50.866;4.398;2023-04-23T08:12:31;24.50;93.70
29237;DHT22;16266;50.866;4.398;2023-04-23T08:14:59;24.40;96.70
29237;DHT22;16266;50.866;4.398;2023-04-23T08:17:24;25.00;95.60
29237;DHT22;16266;50.866;4.398;2023-04-23T08:19:50;25.30;94.00
29237;DHT22;16266;50.866;4.398;2023-04-23T08:22:16;24.70;93.90
29237;DHT22;16266;50.866;4.398;2023-04-23T08:24:43;24.30;95.80
29237;DHT22;16266;50.866;4.398;2023-04-23T08:27:09;24.10;97.20
29237;DHT22;16266;50.866;4.398;2023-04-23T08:29:35;24.10;97.20
29237;DHT22;16266;50.866;4.398;2023-04-23T08:32:01;24.30;96.30
29237;DHT22;16266;50.866;4.398;2023-04-23T08:34:27;24.20;96.50
29237;DHT22;16266;50.866;4.398;2023-04-23T08:36:53;23.90;97.50
29237;DHT22;16266;50.866;4.398;2023-04-23T08:39:18;23.80;98.00
29237;DHT22;16266;50.866;4.398;2023-04-23T08:41:48;24.50;97.40
29237;DHT22;16266;50.866;4.398;2023-04-23T08:44:20;25.60;96.30
29237;DHT22;16266;50.866;4.398;2023-04-23T08:46:47;25.70;94.20
29237;DHT22;16266;50.866;4.398;2023-04-23T08:49:15;25.00;94.60
29237;DHT22;16266;50.866;4.398;2023-04-23T08:51:51;24.30;96.30
29237;DHT22;16266;50.866;4.398;2023-04-23T08:54:24;23.50;97.80
29237;DHT22;16266;50.866;4.398;2023-04-23T08:56:53;23.20;98.60
29237;DHT22;16266;50.866;4.398;2023-04-23T08:59:20;22.70;99.90
29237;DHT22;16266;50.866;4.398;2023-04-23T09:01:47;22.90;99.90
29237;DHT22;16266;50.866;4.398;2023-04-23T09:04:14;23.70;99.90
29237;DHT22;16266;50.866;4.398;2023-04-23T09:06:45;24.00;97.50
29237;DHT22;16266;50.866;4.398;2023-04-23T09:09:15;23.70;98.70
29237;DHT22;16266;50.866;4.398;2023-04-23T09:11:41;23.20;98.90
29237;DHT22;16266;50.866;4.398;2023-04-23T09:14:07;23.30;99.80
29237;DHT22;16266;50.866;4.398;2023-04-23T09:16:33;23.80;98.70
29237;DHT22;16266;50.866;4.398;2023-04-23T09:18:59;24.70;97.20
29237;DHT22;16266;50.866;4.398;2023-04-23T09:21:25;24.40;96.40
29237;DHT22;16266;50.866;4.398;2023-04-23T09:23:50;24.20;97.50
29237;DHT22;16266;50.866;4.398;2023-04-23T09:26:20;24.50;97.90
29237;DHT22;16266;50.866;4.398;2023-04-23T09:28:47;24.60;96.00
29237;DHT22;16266;50.866;4.398;2023-04-23T09:31:14;24.50;97.00
29237;DHT22;16266;50.866;4.398;2023-04-23T09:33:39;24.20;97.20
29237;DHT22;16266;50.866;4.398;2023-04-23T09:36:09;23.80;96.40
29237;DHT22;16266;50.866;4.398;2023-04-23T09:38:39;23.90;97.30
29237;DHT22;16266;50.866;4.398;2023-04-23T09:41:25;24.20;97.50
29237;DHT22;16266;50.866;4.398;2023-04-23T09:43:55;24.40;96.90
29237;DHT22;16266;50.866;4.398;2023-04-23T09:46:34;24.50;95.80
29237;DHT22;16266;50.866;4.398;2023-04-23T09:49:02;24.50;96.70
29237;DHT22;16266;50.866;4.398;2023-04-23T09:51:29;24.60;96.20
29237;DHT22;16266;50.866;4.398;2023-04-23T09:53:55;24.70;96.00
29237;DHT22;16266;50.866;4.398;2023-04-23T09:56:21;24.50;96.90
29237;DHT22;16266;50.866;4.398;2023-04-23T09:58:46;24.50;96.10
29237;DHT22;16266;50.866;4.398;2023-04-23T10:01:12;23.80;95.30
29237;DHT22;16266;50.866;4.398;2023-04-23T10:03:43;23.80;96.40
29237;DHT22;16266;50.866;4.398;2023-04-23T10:06:14;23.80;95.60
29237;DHT22;16266;50.866;4.398;2023-04-23T10:08:40;23.10;96.70
29237;DHT22;16266;50.866;4.398;2023-04-23T10:11:07;22.50;97.10
29237;DHT22;16266;50.866;4.398;2023-04-23T10:13:34;22.10;98.00
29237;DHT22;16266;50.866;4.398;2023-04-23T10:16:01;21.50;99.90
29237;DHT22;16266;50.866;4.398;2023-04-23T10:18:29;21.10;99.90
29237;DHT22;16266;50.866;4.398;2023-04-23T10:20:57;21.10;99.90
29237;DHT22;16266;50.866;4.398;2023-04-23T10:23:23;21.50;99.90
29237;DHT22;16266;50.866;4.398;2023-04-23T10:25:54;22.50;99.90
29237;DHT22;16266;50.866;4.398;2023-04-23T10:28:21;24.00;96.90
29237;DHT22;16266;50.866;4.398;2023-04-23T10:30:53;25.00;92.60
29237;DHT22;16266;50.866;4.398;2023-04-23T10:33:19;23.70;93.50
29237;DHT22;16266;50.866;4.398;2023-04-23T10:35:46;22.70;96.30
29237;DHT22;16266;50.866;4.398;2023-04-23T10:38:13;22.00;98.50
29237;DHT22;16266;50.866;4.398;2023-04-23T10:40:43;22.90;98.40
29237;DHT22;16266;50.866;4.398;2023-04-23T10:43:11;23.50;97.00
29237;DHT22;16266;50.866;4.398;2023-04-23T10:45:36;23.10;95.40
29237;DHT22;16266;50.866;4.398;2023-04-23T10:48:02;21.40;99.90
29237;DHT22;16266;50.866;4.398;2023-04-23T10:50:31;20.30;99.90
29237;DHT22;16266;50.866;4.398;2023-04-23T10:53:01;20.00;99.90
29237;DHT22;16266;50.866;4.398;2023-04-23T10:55:28;20.50;99.90
29237;DHT22;16266;50.866;4.398;2023-04-23T10:58:04;21.20;99.90
29237;DHT22;16266;50.866;4.398;2023-04-23T11:00:44;21.70;99.90
29237;DHT22;16266;50.866;4.398;2023-04-23T11:03:27;22.50;99.50
29237;DHT22;16266;50.866;4.398;2023-04-23T11:05:54;23.00;98.20
29237;DHT22;16266;50.866;4.398;2023-04-23T11:08:20;24.30;96.60
29237;DHT22;16266;50.866;4.398;2023-04-23T11:10:59;25.30;90.50
29237;DHT22;16266;50.866;4.398;2023-04-23T11:13:26;26.30;88.10
29237;DHT22;16266;50.866;4.398;2023-04-23T11:18:59;26.10;77.30
29237;DHT22;16266;50.866;4.398;2023-04-23T11:24:27;24.30;84.10
29237;DHT22;16266;50.866;4.398;2023-04-23T11:26:53;23.50;86.90
29237;DHT22;16266;50.866;4.398;2023-04-23T11:29:23;22.60;91.20
29237;DHT22;16266;50.866;4.398;2023-04-23T11:31:50;22.00;93.50
29237;DHT22;16266;50.866;4.398;2023-04-23T11:34:16;21.50;95.10
29237;DHT22;16266;50.866;4.398;2023-04-23T11:36:42;21.40;96.70
29237;DHT22;16266;50.866;4.398;2023-04-23T11:39:08;21.40;96.40
29237;DHT22;16266;50.866;4.398;2023-04-23T11:41:35;21.80;96.30
29237;DHT22;16266;50.866;4.398;2023-04-23T11:44:01;22.30;94.80
29237;DHT22;16266;50.866;4.398;2023-04-23T11:46:26;22.30;94.60
29237;DHT22;16266;50.866;4.398;2023-04-23T11:48:52;22.20;95.20
29237;DHT22;16266;50.866;4.398;2023-04-23T11:51:24;22.10;95.60
29237;DHT22;16266;50.866;4.398;2023-04-23T11:53:50;21.70;98.50
29237;DHT22;16266;50.866;4.398;2023-04-23T11:56:16;21.00;99.90
29237;DHT22;16266;50.866;4.398;2023-04-23T11:58:42;20.20;99.90
29237;DHT22;16266;50.866;4.398;2023-04-23T12:01:10;19.40;99.90
29237;DHT22;16266;50.866;4.398;2023-04-23T12:03:39;18.50;99.90
29237;DHT22;16266;50.866;4.398;2023-04-23T12:06:05;17.90;99.90
29237;DHT22;16266;50.866;4.398;2023-04-23T12:08:34;17.50;99.90
29237;DHT22;16266;50.866;4.398;2023-04-23T12:11:02;17.30;99.90
29237;DHT22;16266;50.866;4.398;2023-04-23T12:13:31;16.80;99.90
29237;DHT22;16266;50.866;4.398;2023-04-23T12:15:59;16.40;99.90
29237;DHT22;16266;50.866;4.398;2023-04-23T12:18:28;15.90;99.90
29237;DHT22;16266;50.866;4.398;2023-04-23T12:20:55;15.50;99.90
29237;DHT22;16266;50.866;4.398;2023-04-23T12:23:26;15.10;99.90
29237;DHT22;16266;50.866;4.398;2023-04-23T12:25:53;15.00;99.90
29237;DHT22;16266;50.866;4.398;2023-04-23T12:28:22;15.00;99.90
29237;DHT22;16266;50.866;4.398;2023-04-23T12:30:48;14.60;99.90
29237;DHT22;16266;50.866;4.398;2023-04-23T12:33:15;14.40;99.90
29237;DHT22;16266;50.866;4.398;2023-04-23T12:38:23;14.20;99.90
29237;DHT22;16266;50.866;4.398;2023-04-23T12:40:56;14.10;99.90
29237;DHT22;16266;50.866;4.398;2023-04-23T12:43:24;14.10;99.90
29237;DHT22;16266;50.866;4.398;2023-04-23T12:45:51;14.00;99.90
29237;DHT22;16266;50.866;4.398;2023-04-23T12:48:17;14.10;99.90
29237;DHT22;16266;50.866;4.398;2023-04-23T12:50:46;14.10;99.90
29237;DHT22;16266;50.866;4.398;2023-04-23T12:53:12;14.00;99.90
29237;DHT22;16266;50.866;4.398;2023-04-23T12:55:38;14.00;99.90
29237;DHT22;16266;50.866;4.398;2023-04-23T12:58:04;13.90;99.90
29237;DHT22;16266;50.866;4.398;2023-04-23T13:00:30;13.90;99.90
29237;DHT22;16266;50.866;4.398;2023-04-23T13:02:56;13.90;99.90
29237;DHT22;16266;50.866;4.398;2023-04-23T13:05:22;13.90;99.90
29237;DHT22;16266;50.866;4.398;2023-04-23T13:07:48;13.90;99.90
29237;DHT22;16266;50.866;4.398;2023-04-23T13:10:14;14.00;99.90
29237;DHT22;16266;50.866;4.398;2023-04-23T13:12:42;14.00;99.90
29237;DHT22;16266;50.866;4.398;2023-04-23T13:15:08;14.20;99.90
29237;DHT22;16266;50.866;4.398;2023-04-23T13:17:35;14.20;99.90
29237;DHT22;16266;50.866;4.398;2023-04-23T13:20:01;14.40;99.90
29237;DHT22;16266;50.866;4.398;2023-04-23T13:22:27;14.40;99.90
29237;DHT22;16266;50.866;4.398;2023-04-23T13:24:54;14.60;99.90
29237;DHT22;16266;50.866;4.398;2023-04-23T13:27:24;14.60;99.90
29237;DHT22;16266;50.866;4.398;2023-04-23T13:29:50;14.70;99.90
29237;DHT22;16266;50.866;4.398;2023-04-23T13:32:15;14.60;99.90
29237;DHT22;16266;50.866;4.398;2023-04-23T13:34:41;14.50;99.90
29237;DHT22;16266;50.866;4.398;2023-04-23T13:37:07;14.30;99.90
29237;DHT22;16266;50.866;4.398;2023-04-23T13:39:35;14.20;99.90
29237;DHT22;16266;50.866;4.398;2023-04-23T13:42:00;14.10;99.90
29237;DHT22;16266;50.866;4.398;2023-04-23T13:44:31;14.10;99.90
29237;DHT22;16266;50.866;4.398;2023-04-23T13:46:57;14.00;99.90
29237;DHT22;16266;50.866;4.398;2023-04-23T13:49:26;14.00;99.90
29237;DHT22;16266;50.866;4.398;2023-04-23T13:51:55;14.00;99.90
29237;DHT22;16266;50.866;4.398;2023-04-23T13:54:24;13.80;99.90
29237;DHT22;16266;50.866;4.398;2023-04-23T13:56:53;13.70;99.90
29237;DHT22;16266;50.866;4.398;2023-04-23T13:59:19;13.70;99.90
29237;DHT22;16266;50.866;4.398;2023-04-23T14:01:46;13.60;99.90
29237;DHT22;16266;50.866;4.398;2023-04-23T14:04:14;13.50;99.90
29237;DHT22;16266;50.866;4.398;2023-04-23T14:06:41;13.40;99.90
29237;DHT22;16266;50.866;4.398;2023-04-23T14:09:07;13.30;99.90
29237;DHT22;16266;50.866;4.398;2023-04-23T14:11:32;13.30;99.90
29237;DHT22;16266;50.866;4.398;2023-04-23T14:13:58;13.20;99.90
29237;DHT22;16266;50.866;4.398;2023-04-23T14:16:25;13.30;99.90
29237;DHT22;16266;50.866;4.398;2023-04-23T14:18:51;13.30;99.90
29237;DHT22;16266;50.866;4.398;2023-04-23T14:21:17;13.40;99.90
29237;DHT22;16266;50.866;4.398;2023-04-23T14:28:53;14.10;99.90
29237;DHT22;16266;50.866;4.398;2023-04-23T14:31:20;14.20;99.90
29237;DHT22;16266;50.866;4.398;2023-04-23T14:33:47;14.30;99.90
29237;DHT22;16266;50.866;4.398;2023-04-23T14:36:13;14.40;99.90
29237;DHT22;16266;50.866;4.398;2023-04-23T14:38:38;14.60;99.90
29237;DHT22;16266;50.866;4.398;2023-04-23T14:41:04;14.90;99.90
29237;DHT22;16266;50.866;4.398;2023-04-23T14:43:30;15.10;99.90
29237;DHT22;16266;50.866;4.398;2023-04-23T14:45:56;15.40;99.90
29237;DHT22;16266;50.866;4.398;2023-04-23T14:48:21;15.30;99.90
29237;DHT22;16266;50.866;4.398;2023-04-23T14:50:47;15.20;99.90
29237;DHT22;16266;50.866;4.398;2023-04-23T14:53:13;15.40;99.90
29237;DHT22;16266;50.866;4.398;2023-04-23T14:55:38;15.50;99.90
29237;DHT22;16266;50.866;4.398;2023-04-23T14:58:07;15.70;99.90
29237;DHT22;16266;50.866;4.398;2023-04-23T15:00:33;15.40;99.90
29237;DHT22;16266;50.866;4.398;2023-04-23T15:02:58;15.50;99.90
29237;DHT22;16266;50.866;4.398;2023-04-23T15:05:25;15.60;99.90
29237;DHT22;16266;50.866;4.398;2023-04-23T15:07:51;15.70;99.90
29237;DHT22;16266;50.866;4.398;2023-04-23T15:10:18;15.90;99.90
29237;DHT22;16266;50.866;4.398;2023-04-23T15:13:00;15.80;99.90
29237;DHT22;16266;50.866;4.398;2023-04-23T15:15:36;15.60;99.90
29237;DHT22;16266;50.866;4.398;2023-04-23T15:18:02;15.20;99.90
29237;DHT22;16266;50.866;4.398;2023-04-23T15:20:28;15.30;99.90
29237;DHT22;16266;50.866;4.398;2023-04-23T15:22:53;15.50;99.90
29237;DHT22;16266;50.866;4.398;2023-04-23T15:25:19;15.40;99.90
29237;DHT22;16266;50.866;4.398;2023-04-23T15:27:45;15.50;99.90
29237;DHT22;16266;50.866;4.398;2023-04-23T15:30:11;15.60;99.90
29237;DHT22;16266;50.866;4.398;2023-04-23T15:32:37;15.60;99.90
29237;DHT22;16266;50.866;4.398;2023-04-23T15:35:03;15.60;99.90
29237;DHT22;16266;50.866;4.398;2023-04-23T15:37:29;15.30;99.90
29237;DHT22;16266;50.866;4.398;2023-04-23T15:39:56;15.10;99.90
29237;DHT22;16266;50.866;4.398;2023-04-23T15:42:23;15.00;99.90
29237;DHT22;16266;50.866;4.398;2023-04-23T15:44:51;14.80;99.90